Time;durP1;ratioP1;P1;durP2;ratioP2;P2;SDS_P1;SDS_P2;PMS_P1;PMS_P2;Temp;Humidity;BMP_temperature;BMP_pressure;BME280_temperature;BME280_humidity;BME280_pressure;Samples;Min_cycle;Max_cycle;Signal;HPM_P1;HPM_P2
2022/07/16 00:03:32;;;;;;;2.63;2.10;;;;;;;18.94;53.42;97052.03;10375353;28;20288;-22
2022/07/16 00:08:33;;;;;;;4.97;2.40;;;;;;;18.89;54.02;97053.69;10376572;28;20091;-21
2022/07/16 00:13:33;;;;;;;3.70;2.10;;;;;;;18.88;53.94;97057.09;10371907;28;20034;-21
2022/07/16 00:23:55;;;;;;;2.75;2.30;;;;;;;18.93;53.53;97052.88;10367506;28;20444;-20
2022/07/16 00:28:55;;;;;;;3.40;2.13;;;;;;;18.93;53.89;97055.41;10372825;28;20083;-20
2022/07/16 00:33:56;;;;;;;2.23;1.90;;;;;;;18.91;53.84;97054.56;10368442;28;20045;-22
2022/07/16 00:38:56;;;;;;;3.60;2.13;;;;;;;18.87;53.61;97060.47;10370074;28;20041;-21
2022/07/16 00:44:00;;;;;;;3.10;2.00;;;;;;;18.92;53.54;97053.72;10367952;28;20026;-21
2022/07/16 00:49:01;;;;;;;5.38;2.53;;;;;;;18.86;53.78;97053.69;10370450;28;20041;-20
2022/07/16 00:54:03;;;;;;;2.78;2.15;;;;;;;18.83;53.66;97046.09;10368783;28;20041;-21
2022/07/16 00:59:03;;;;;;;2.80;2.33;;;;;;;18.84;53.63;97052.84;10369336;28;20083;-21
2022/07/16 01:04:04;;;;;;;2.55;2.00;;;;;;;18.70;53.86;97036.72;10372168;28;20476;-21
2022/07/16 01:09:05;;;;;;;3.05;1.88;;;;;;;18.77;53.77;97048.59;10370813;28;20033;-21
2022/07/16 01:14:07;;;;;;;4.30;2.00;;;;;;;18.74;53.73;97058.75;10368093;28;20484;-21
2022/07/16 01:19:09;;;;;;;5.82;2.50;;;;;;;18.77;53.61;97051.97;10368618;28;20400;-21
2022/07/16 01:24:09;;;;;;;3.72;1.90;;;;;;;18.71;53.69;97039.28;10366830;28;20045;-21
2022/07/16 01:29:09;;;;;;;2.53;1.97;;;;;;;18.70;53.58;97046.88;10373193;28;20041;-21
2022/07/16 01:34:25;;;;;;;2.43;1.97;;;;;;;18.63;53.88;97046.00;10367613;28;20026;-21
2022/07/16 01:39:27;;;;;;;2.10;1.90;;;;;;;18.50;54.40;97040.88;10372856;28;20300;-20
2022/07/16 01:44:28;;;;;;;2.65;1.80;;;;;;;18.41;54.48;97048.44;10368797;28;20108;-20
2022/07/16 01:49:31;;;;;;;2.92;2.03;;;;;;;18.46;54.39;97046.75;10371130;28;20045;-21
2022/07/16 01:54:32;;;;;;;2.63;1.98;;;;;;;18.48;53.90;97045.06;10370583;28;20037;-21
2022/07/16 01:59:32;;;;;;;3.23;2.43;;;;;;;18.52;53.71;97044.25;10369409;28;20385;-21
2022/07/16 02:04:33;;;;;;;5.03;2.38;;;;;;;18.51;53.67;97034.94;10369959;28;20284;-21
2022/07/16 02:09:34;;;;;;;3.17;2.03;;;;;;;18.46;54.18;97034.94;10368179;28;20034;-21
2022/07/16 02:14:35;;;;;;;3.45;2.42;;;;;;;18.45;53.97;97034.91;10366900;28;20037;-22
2022/07/16 02:19:35;;;;;;;3.95;2.33;;;;;;;18.42;54.34;97039.97;10368158;28;20026;-21
2022/07/16 02:24:35;;;;;;;3.17;2.03;;;;;;;18.40;53.97;97026.47;10366990;28;20128;-21
2022/07/16 02:29:36;;;;;;;2.90;2.10;;;;;;;18.38;54.12;97030.66;10368275;28;20121;-21
2022/07/16 02:34:36;;;;;;;4.27;2.47;;;;;;;18.36;54.13;97034.88;10365736;28;20288;-22
2022/07/16 02:39:37;;;;;;;3.25;2.20;;;;;;;18.32;53.93;97030.63;10368443;28;20117;-21
2022/07/16 02:44:37;;;;;;;5.10;2.30;;;;;;;18.20;54.18;97031.38;10367092;28;20041;-21
2022/07/16 02:49:37;;;;;;;3.63;2.10;;;;;;;18.24;54.15;97028.00;10366678;28;20359;-21
2022/07/16 02:54:38;;;;;;;3.40;3.00;;;;;;;18.18;54.11;97027.97;10372206;28;20048;-21
2022/07/16 02:59:38;;;;;;;3.13;2.00;;;;;;;18.22;53.77;97027.16;10371332;28;20042;-21
2022/07/16 03:04:38;;;;;;;6.67;2.20;;;;;;;18.22;53.81;97038.97;10373709;28;20045;-21
2022/07/16 03:09:39;;;;;;;3.57;2.20;;;;;;;18.22;53.53;97036.44;10370429;28;20308;-21
2022/07/16 03:14:39;;;;;;;7.33;2.77;;;;;;;18.17;53.98;97044.00;10372167;28;20400;-21
2022/07/16 03:19:40;;;;;;;3.05;2.55;;;;;;;18.13;53.97;97041.44;10373695;28;20473;-21
2022/07/16 03:24:40;;;;;;;3.05;2.65;;;;;;;18.13;54.19;97049.03;10374379;28;20404;-21
2022/07/16 03:29:41;;;;;;;3.38;2.25;;;;;;;18.09;54.03;97043.09;10378022;28;20107;-21
2022/07/16 03:34:41;;;;;;;3.80;2.40;;;;;;;18.11;53.50;97055.81;10372280;28;20033;-22
2022/07/16 03:39:42;;;;;;;3.03;2.20;;;;;;;18.09;54.06;97049.88;10375856;28;20034;-21
2022/07/16 03:44:42;;;;;;;6.43;3.63;;;;;;;18.08;54.19;97050.72;10375446;28;20117;-22
2022/07/16 03:49:42;;;;;;;4.00;2.70;;;;;;;18.01;54.29;97059.13;10375834;28;20806;-22
2022/07/16 03:54:43;;;;;;;2.80;2.50;;;;;;;17.96;54.23;97053.16;10377975;28;20303;-22
2022/07/16 03:59:43;;;;;;;3.67;2.38;;;;;;;17.97;54.30;97070.03;10376582;28;20038;-21
2022/07/16 04:04:44;;;;;;;2.57;2.37;;;;;;;17.92;54.51;97069.19;10375276;28;20050;-21
2022/07/16 04:09:44;;;;;;;6.50;2.90;;;;;;;17.88;54.75;97080.09;10377967;28;20290;-21
2022/07/16 04:14:45;;;;;;;4.60;2.40;;;;;;;17.89;54.61;97076.72;10374970;28;20518;-21
2022/07/16 04:19:45;;;;;;;4.73;2.60;;;;;;;17.84;54.59;97079.22;10375001;28;20037;-21
2022/07/16 04:24:46;;;;;;;4.50;2.72;;;;;;;17.84;54.74;97088.53;10371836;28;20033;-22
2022/07/16 04:29:46;;;;;;;3.83;2.97;;;;;;;17.84;54.58;97083.47;10374159;28;20038;-22
2022/07/16 04:34:47;;;;;;;3.47;2.60;;;;;;;17.87;54.79;97088.53;10370387;28;20347;-22
2022/07/16 04:39:47;;;;;;;4.47;2.58;;;;;;;17.91;55.00;97091.13;10370535;28;20444;-21
2022/07/16 04:44:47;;;;;;;6.73;2.90;;;;;;;17.90;55.02;97093.66;10370127;28;20490;-21
2022/07/16 04:49:48;;;;;;;6.40;3.53;;;;;;;17.85;55.29;97100.34;10371846;28;20453;-21
2022/07/16 04:54:48;;;;;;;3.28;2.50;;;;;;;17.91;55.00;97090.28;10371265;28;20415;-21
2022/07/16 04:59:49;;;;;;;5.57;2.87;;;;;;;17.98;54.98;97104.69;10371090;28;20038;-21
2022/07/16 05:04:49;;;;;;;4.47;2.60;;;;;;;18.00;54.63;97105.56;10370281;28;20068;-22
2022/07/16 05:09:50;;;;;;;3.43;3.00;;;;;;;18.12;54.65;97098.03;10368959;28;20312;-21
2022/07/16 05:14:50;;;;;;;5.85;2.75;;;;;;;18.14;54.85;97101.41;10368308;28;20375;-21
2022/07/16 05:19:50;;;;;;;2.97;2.40;;;;;;;18.27;54.51;97099.00;10368820;28;20046;-21
2022/07/16 05:24:51;;;;;;;2.37;2.10;;;;;;;18.32;54.23;97094.84;10366139;28;20042;-21
2022/07/16 05:29:51;;;;;;;2.93;2.30;;;;;;;18.34;54.53;97102.47;10368857;28;20088;-21
2022/07/16 05:34:51;;;;;;;4.00;2.20;;;;;;;18.34;54.67;97103.28;10366622;28;20037;-21
2022/07/16 05:39:52;;;;;;;2.90;2.43;;;;;;;18.53;54.01;97091.59;10372936;28;20779;-21
2022/07/16 05:44:52;;;;;;;3.30;2.60;;;;;;;18.49;54.71;97103.41;10368344;28;20046;-20
2022/07/16 05:49:52;;;;;;;3.00;2.03;;;;;;;18.77;54.48;97104.41;10370680;28;20428;-21
2022/07/16 05:54:53;;;;;;;5.70;2.47;;;;;;;18.62;55.65;97102.63;10374295;28;20034;-20
2022/07/16 05:59:53;;;;;;;5.00;2.53;;;;;;;18.71;55.34;97099.28;10370735;28;20531;-20
2022/07/16 06:04:53;;;;;;;4.47;2.33;;;;;;;18.83;55.33;97100.19;10370936;28;20536;-20
2022/07/16 06:09:54;;;;;;;5.20;3.60;;;;;;;18.80;55.27;97100.19;10365950;28;20571;-20
2022/07/16 06:14:54;;;;;;;4.03;2.53;;;;;;;18.87;55.43;97101.06;10370909;28;20300;-20
2022/07/16 06:19:55;;;;;;;5.10;3.23;;;;;;;19.04;55.61;97107.91;10368924;28;20045;-19
2022/07/16 06:24:55;;;;;;;3.73;2.67;;;;;;;19.09;55.24;97105.38;10363534;28;20030;-22
2022/07/16 06:29:56;;;;;;;3.08;2.70;;;;;;;19.00;55.60;97112.97;10364888;28;20026;-20
2022/07/16 06:34:56;;;;;;;4.20;2.55;;;;;;;19.20;54.98;97111.38;10357105;28;20033;-23
2022/07/16 06:39:57;;;;;;;5.50;2.57;;;;;;;19.24;55.12;97119.00;10367356;28;20040;-22
2022/07/16 06:44:57;;;;;;;4.57;2.65;;;;;;;19.23;54.89;97113.91;10364302;28;20501;-22
2022/07/16 06:49:57;;;;;;;4.23;2.87;;;;;;;19.37;54.33;97119.88;10368671;28;20480;-22
2022/07/16 06:54:58;;;;;;;5.97;2.90;;;;;;;19.83;53.01;97111.53;10364362;28;20558;-23
2022/07/16 06:59:58;;;;;;;5.13;2.80;;;;;;;20.08;52.88;97108.19;10361603;28;20088;-22
2022/07/16 07:04:59;;;;;;;6.63;2.65;;;;;;;20.16;52.14;97103.91;10366845;28;20044;-22
2022/07/16 07:09:59;;;;;;;5.30;2.95;;;;;;;20.39;51.16;97111.53;10366579;28;20477;-22
2022/07/16 07:15:01;;;;;;;3.85;2.85;;;;;;;20.29;51.07;97116.66;10368634;28;20512;-22
2022/07/16 07:20:02;;;;;;;6.60;2.75;;;;;;;20.17;51.53;97113.25;10368297;28;20026;-21
2022/07/16 07:25:03;;;;;;;3.05;2.47;;;;;;;20.24;51.55;97113.25;10369516;28;20037;-22
2022/07/16 07:30:04;;;;;;;3.13;2.83;;;;;;;20.26;51.67;97119.16;10365268;28;20153;-22
2022/07/16 07:35:06;;;;;;;3.63;2.33;;;;;;;20.15;51.90;97120.88;10364310;28;20121;-22
2022/07/16 07:40:07;;;;;;;4.78;2.60;;;;;;;20.22;51.69;97122.56;10368908;28;20477;-22
2022/07/16 07:45:08;;;;;;;5.35;2.67;;;;;;;20.28;51.46;97119.19;10366174;28;20679;-22
2022/07/16 07:50:09;;;;;;;4.65;2.45;;;;;;;20.49;49.96;97123.41;10375843;28;20038;-22
2022/07/16 07:55:09;;;;;;;5.78;2.88;;;;;;;20.55;49.36;97117.44;10377047;28;20029;-22
2022/07/16 08:00:10;;;;;;;2.47;2.28;;;;;;;20.32;51.17;97118.31;10374165;28;20045;-21
2022/07/16 08:05:14;;;;;;;7.70;2.20;;;;;;;20.19;51.98;97121.72;10376178;28;20046;-22
2022/07/16 08:10:15;;;;;;;4.95;2.80;;;;;;;20.12;52.16;97120.88;10373199;28;20382;-22
2022/07/16 08:15:15;;;;;;;5.47;2.70;;;;;;;20.10;52.36;97119.19;10374393;28;20030;-23
2022/07/16 08:20:16;;;;;;;4.57;2.30;;;;;;;20.08;52.82;97124.25;10375119;28;20026;-23
2022/07/16 08:30:36;;;;;;;6.10;2.40;;;;;;;20.08;52.73;97133.59;10370814;28;20033;-22
2022/07/16 08:35:36;;;;;;;4.60;2.58;;;;;;;20.09;52.77;97132.75;10370036;28;20041;-22
2022/07/16 08:40:41;;;;;;;3.83;3.27;;;;;;;20.22;52.49;97124.25;10374985;28;20033;-22
2022/07/16 08:45:41;;;;;;;5.18;3.28;;;;;;;20.33;52.23;97120.03;10371225;28;20289;-21
2022/07/16 08:50:42;;;;;;;3.33;3.03;;;;;;;20.28;52.41;97127.63;10372815;28;20511;-22
2022/07/16 08:55:43;;;;;;;3.05;2.30;;;;;;;20.18;52.79;97125.94;10365639;28;20528;-22
2022/07/16 09:00:45;;;;;;;2.63;2.13;;;;;;;20.13;52.96;97126.81;10373617;28;20038;-22
2022/07/16 09:05:49;;;;;;;3.70;2.28;;;;;;;20.12;53.04;97131.06;10371289;28;20033;-22
2022/07/16 09:10:49;;;;;;;3.72;2.38;;;;;;;20.12;53.25;97140.38;10373417;28;20099;-22
2022/07/16 09:15:50;;;;;;;2.83;2.50;;;;;;;20.11;53.34;97136.97;10371431;28;20404;-24
2022/07/16 09:20:55;;;;;;;3.33;2.13;;;;;;;20.11;53.27;97143.75;10371302;28;20033;-22
2022/07/16 09:25:58;;;;;;;4.88;3.10;;;;;;;20.13;53.41;97147.13;10371994;28;20044;-22
2022/07/16 09:30:59;;;;;;;3.40;3.10;;;;;;;20.32;53.07;97133.56;10369004;28;20123;-22
2022/07/16 09:36:11;;;;;;;3.20;2.43;;;;;;;20.33;52.64;97128.50;10367046;28;20108;-22
2022/07/16 09:41:14;;;;;;;4.07;2.55;;;;;;;20.27;53.10;97142.91;10372814;28;20057;-22
2022/07/16 09:46:17;;;;;;;2.05;1.85;;;;;;;20.19;53.18;97142.06;10371602;28;20071;-22
2022/07/16 09:51:27;;;;;;;2.28;2.00;;;;;;;20.16;53.43;97142.91;10372920;28;20496;-22
2022/07/16 09:56:27;;;;;;;4.75;2.92;;;;;;;20.15;53.28;97145.44;10369395;28;20038;-22
2022/07/16 10:01:28;;;;;;;2.60;2.20;;;;;;;20.14;53.61;97148.84;10369694;28;20030;-23
2022/07/16 10:06:28;;;;;;;3.20;2.30;;;;;;;20.15;53.52;97140.34;10372436;28;20049;-22
2022/07/16 10:11:29;;;;;;;2.72;2.38;;;;;;;20.12;53.56;97135.28;10376629;28;20663;-22
2022/07/16 10:16:37;;;;;;;3.40;3.10;;;;;;;20.32;53.56;97133.56;10371188;28;20030;-22
2022/07/16 10:21:38;;;;;;;3.08;2.88;;;;;;;20.40;53.34;97128.47;10371391;28;20053;-23
2022/07/16 10:26:39;;;;;;;4.75;2.08;;;;;;;20.43;52.99;97132.72;10371856;28;20048;-22
2022/07/16 10:37:12;;;;;;;2.37;2.17;;;;;;;20.25;53.34;97137.00;10363353;28;20057;-22
2022/07/16 10:42:16;;;;;;;;;;;;;;;20.20;53.71;97119.19;10368437;28;20147;-21
2022/07/16 10:47:18;;;;;;;8.20;3.17;;;;;;;20.21;53.79;97120.03;10366036;28;19914;-22
2022/07/16 10:52:18;;;;;;;7.18;3.20;;;;;;;20.26;53.89;97125.97;10371548;28;20026;-22
2022/07/16 10:57:32;;;;;;;8.75;3.33;;;;;;;20.22;54.15;97124.25;10366174;28;20029;-21
2022/07/16 11:02:40;;;;;;;9.73;3.30;;;;;;;20.31;54.68;97124.25;10371296;28;20083;-22
2022/07/16 11:07:43;;;;;;;8.50;2.92;;;;;;;20.48;54.25;97120.84;10371498;28;20115;-22
2022/07/16 11:12:43;;;;;;;10.75;3.83;;;;;;;20.60;54.45;97116.59;10360004;28;20099;-22
2022/07/16 11:17:54;;;;;;;4.47;2.42;;;;;;;20.45;53.72;97105.59;10359237;28;20075;-21
2022/07/16 11:23:03;;;;;;;4.85;2.80;;;;;;;20.39;53.83;97124.22;10356449;28;20034;-22
2022/07/16 11:28:04;;;;;;;4.80;2.45;;;;;;;20.33;53.77;97114.94;10369570;28;20033;-21
2022/07/16 11:33:04;;;;;;;7.75;2.13;;;;;;;20.30;53.99;97120.88;10367978;28;20033;-23
2022/07/16 11:38:04;;;;;;;6.17;2.20;;;;;;;20.28;54.16;97114.09;10373211;28;20556;-21
2022/07/16 11:43:05;;;;;;;6.40;2.87;;;;;;;20.33;54.92;97120.03;10371047;28;20131;-22
2022/07/16 11:48:14;;;;;;;3.78;3.03;;;;;;;20.53;54.27;97104.72;10374242;28;20092;-22
2022/07/16 11:53:27;;;;;;;3.55;2.10;;;;;;;20.55;53.75;97113.19;10374500;28;20405;-21
2022/07/16 11:58:28;;;;;;;2.20;1.98;;;;;;;20.43;53.91;97123.41;10373834;28;20467;-21
2022/07/16 12:03:28;;;;;;;3.22;2.25;;;;;;;20.38;53.98;97115.78;10374670;28;20053;-22
2022/07/16 12:08:30;;;;;;;6.97;3.50;;;;;;;20.32;54.12;97113.22;10379492;28;20061;-22
2022/07/16 12:13:31;;;;;;;2.05;1.85;;;;;;;20.30;54.22;97114.94;10372832;28;20670;-22
2022/07/16 12:18:31;;;;;;;3.00;2.33;;;;;;;20.28;54.34;97116.63;10372389;28;20053;-22
2022/07/16 12:23:34;;;;;;;4.70;2.60;;;;;;;20.25;54.49;97117.47;10374000;28;20105;-22
2022/07/16 12:28:35;;;;;;;5.07;2.65;;;;;;;20.48;54.25;97106.41;10376792;28;20303;-21
2022/07/16 12:33:36;;;;;;;3.80;2.47;;;;;;;20.63;54.36;97115.75;10369389;28;20042;-22
2022/07/16 12:38:58;;;;;;;2.60;1.80;;;;;;;20.55;53.79;97120.81;10373060;28;20042;-22
2022/07/16 12:44:10;;;;;;;3.05;2.25;;;;;;;20.43;54.08;97115.78;10369962;28;20030;-22
2022/07/16 12:49:13;;;;;;;6.15;2.08;;;;;;;20.38;54.23;97118.31;10369799;28;20043;-22
2022/07/16 12:54:14;;;;;;;3.53;2.03;;;;;;;20.34;54.29;97106.47;10374575;28;20034;-21
2022/07/16 12:59:16;;;;;;;2.53;2.33;;;;;;;20.34;54.33;97119.19;10372036;28;20034;-22
2022/07/16 13:04:17;;;;;;;3.63;2.10;;;;;;;20.31;54.49;97121.69;10374041;28;20033;-22
2022/07/16 13:09:17;;;;;;;3.85;3.33;;;;;;;20.36;55.00;97120.03;10370137;28;20469;-22
2022/07/16 13:14:18;;;;;;;5.40;2.50;;;;;;;20.52;54.23;97108.13;10369204;28;20037;-21
2022/07/16 13:19:18;;;;;;;2.23;2.03;;;;;;;20.64;53.89;97128.44;10371649;28;20045;-22
2022/07/16 13:24:19;;;;;;;2.83;2.63;;;;;;;20.52;54.30;97128.47;10371632;28;20664;-21
2022/07/16 13:29:21;;;;;;;2.25;2.05;;;;;;;20.44;54.37;97132.72;10369399;28;20048;-22
2022/07/16 13:34:21;;;;;;;2.63;2.00;;;;;;;20.41;54.21;97131.88;10367425;28;20464;-21
2022/07/16 13:39:21;;;;;;;3.30;1.93;;;;;;;20.37;54.54;97127.66;10373254;28;20038;-22
2022/07/16 13:44:22;;;;;;;2.17;1.90;;;;;;;20.36;54.43;97125.94;10365791;28;20026;-22
2022/07/16 13:49:24;;;;;;;3.50;2.13;;;;;;;20.36;54.57;97130.19;10371748;28;20030;-22
2022/07/16 13:54:25;;;;;;;2.45;2.25;;;;;;;20.49;54.88;97131.03;10372610;28;20124;-22
2022/07/16 13:59:25;;;;;;;2.80;2.58;;;;;;;20.66;54.82;97121.66;10369487;28;20029;-21
2022/07/16 14:04:25;;;;;;;3.47;2.03;;;;;;;20.67;53.88;97118.28;10366850;28;20034;-21
2022/07/16 14:09:26;;;;;;;2.00;1.90;;;;;;;20.56;54.57;97125.06;10368896;28;20040;-22
2022/07/16 14:14:26;;;;;;;2.60;2.30;;;;;;;20.49;54.52;97122.53;10368056;28;20632;-22
2022/07/16 14:19:27;;;;;;;1.63;1.52;;;;;;;20.44;54.38;97122.56;10368879;28;20481;-22
2022/07/16 14:24:27;;;;;;;1.90;1.70;;;;;;;20.42;54.67;97125.09;10368014;28;20030;-22
2022/07/16 14:29:28;;;;;;;1.85;1.73;;;;;;;20.42;54.44;97125.09;10370946;28;20033;-21
2022/07/16 14:34:29;;;;;;;2.10;1.90;;;;;;;20.40;54.48;97131.00;10366036;28;20498;-22
2022/07/16 14:39:29;;;;;;;2.78;2.53;;;;;;;20.49;55.50;97120.84;10361429;28;20087;-22
2022/07/16 14:44:29;;;;;;;3.10;2.50;;;;;;;20.70;54.52;97113.16;10366769;28;20558;-22
2022/07/16 14:49:30;;;;;;;2.03;1.87;;;;;;;20.70;54.34;97120.81;10368389;28;20091;-21
2022/07/16 14:54:30;;;;;;;2.37;1.97;;;;;;;20.57;54.75;97119.13;10371019;28;20026;-23
2022/07/16 14:59:30;;;;;;;3.60;2.10;;;;;;;20.51;54.34;97126.78;10377622;28;20037;-22
2022/07/16 15:04:31;;;;;;;2.37;2.17;;;;;;;20.44;54.71;97114.91;10370797;28;20030;-22
2022/07/16 15:09:32;;;;;;;3.20;2.10;;;;;;;20.44;54.55;97125.09;10377648;28;20107;-22
2022/07/16 15:14:33;;;;;;;1.50;1.40;;;;;;;20.43;54.65;97118.31;10374017;28;20492;-21
2022/07/16 15:19:33;;;;;;;2.37;2.17;;;;;;;20.42;54.69;97121.72;10377189;28;20117;-22
2022/07/16 15:24:34;;;;;;;2.20;2.03;;;;;;;20.54;55.65;97115.75;10376576;28;20312;-22
2022/07/16 15:29:34;;;;;;;2.33;2.13;;;;;;;20.73;54.85;97115.69;10377915;28;20285;-22
2022/07/16 15:34:34;;;;;;;2.40;1.67;;;;;;;20.74;54.39;97109.78;10371949;28;20026;-21
2022/07/16 15:39:40;;;;;;;2.37;2.17;;;;;;;20.61;54.52;97109.78;10375116;28;20096;-22
2022/07/16 15:44:41;;;;;;;2.42;2.20;;;;;;;20.54;54.57;97110.66;10371386;28;20515;-22
2022/07/16 15:49:41;;;;;;;2.30;1.97;;;;;;;20.50;54.84;97109.84;10373910;28;20069;-22
2022/07/16 15:54:42;;;;;;;3.10;2.40;;;;;;;20.40;54.86;97113.22;10377743;28;20049;-22
2022/07/16 15:59:42;;;;;;;1.70;1.60;;;;;;;20.45;55.03;97116.59;10372943;28;20805;-22
2022/07/16 16:04:42;;;;;;;1.70;1.60;;;;;;;20.45;54.94;97118.31;10374938;28;20034;-22
2022/07/16 16:09:43;;;;;;;2.60;2.17;;;;;;;20.55;55.56;97113.19;10374280;28;20034;-21
2022/07/16 16:14:43;;;;;;;1.73;1.63;;;;;;;20.77;54.71;97116.53;10369039;28;20085;-21
2022/07/16 16:19:44;;;;;;;1.60;1.50;;;;;;;20.69;54.46;97106.38;10373128;28;20523;-22
2022/07/16 16:24:44;;;;;;;2.03;1.93;;;;;;;20.63;54.78;97116.56;10373695;28;20297;-22
2022/07/16 16:29:44;;;;;;;1.43;1.33;;;;;;;20.57;54.84;97110.66;10372262;28;20050;-21
2022/07/16 16:34:45;;;;;;;1.87;1.67;;;;;;;20.53;54.87;97120.00;10370018;28;20030;-22
2022/07/16 16:39:45;;;;;;;2.10;2.00;;;;;;;20.50;54.89;97107.28;10373332;28;20045;-21
2022/07/16 16:44:46;;;;;;;1.55;1.45;;;;;;;20.49;55.19;97123.41;10371720;28;20041;-22
2022/07/16 16:49:46;;;;;;;1.70;1.60;;;;;;;20.48;55.08;97124.22;10374100;28;20103;-21
2022/07/16 16:54:47;;;;;;;1.87;1.77;;;;;;;20.62;55.46;97121.69;10377078;28;20116;-22
2022/07/16 16:59:47;;;;;;;1.73;1.63;;;;;;;20.80;54.97;97119.91;10372067;28;20307;-22
2022/07/16 17:04:47;;;;;;;1.90;1.70;;;;;;;20.76;54.57;97118.25;10369716;28;20647;-21
2022/07/16 17:09:48;;;;;;;2.27;1.90;;;;;;;20.65;54.96;97124.22;10370742;28;20556;-22
2022/07/16 17:14:48;;;;;;;2.50;2.30;;;;;;;20.59;55.10;97127.63;10369446;28;20259;-22
2022/07/16 17:19:49;;;;;;;1.63;1.53;;;;;;;20.55;55.23;97151.34;10370405;28;20066;-22
2022/07/16 17:24:50;;;;;;;1.92;1.67;;;;;;;20.53;54.98;97139.47;10372295;28;20052;-22
2022/07/16 17:29:51;;;;;;;1.50;1.30;;;;;;;20.51;54.84;97143.72;10371075;28;20041;-22
2022/07/16 17:34:51;;;;;;;1.87;1.77;;;;;;;20.49;55.16;97148.84;10367510;28;20041;-22
2022/07/16 17:39:52;;;;;;;1.60;1.50;;;;;;;20.66;55.51;97138.63;10369580;28;20046;-22
2022/07/16 17:44:52;;;;;;;1.88;1.70;;;;;;;20.79;55.24;97138.59;10369081;28;20292;-22
2022/07/16 17:49:52;;;;;;;1.70;1.60;;;;;;;20.81;54.65;97148.78;10371093;28;20040;-22
2022/07/16 17:54:54;;;;;;;1.38;1.27;;;;;;;20.65;54.99;97150.47;10369452;28;20209;-22
2022/07/16 17:59:54;;;;;;;1.50;1.40;;;;;;;20.60;55.06;97151.34;10369133;28;20404;-22
2022/07/16 18:04:55;;;;;;;2.00;1.40;;;;;;;20.55;55.26;97151.34;10367414;28;20030;-21
2022/07/16 18:09:55;;;;;;;1.40;1.30;;;;;;;20.51;55.30;97154.75;10368955;28;20026;-21
2022/07/16 18:14:58;;;;;;;1.93;1.63;;;;;;;20.51;55.42;97167.47;10368289;28;20029;-21
2022/07/16 18:19:58;;;;;;;1.60;1.50;;;;;;;20.48;55.24;97166.63;10368623;28;20285;-22
2022/07/16 18:24:59;;;;;;;1.65;1.55;;;;;;;20.66;55.77;97162.38;10369694;28;20037;-22
2022/07/16 18:29:59;;;;;;;1.80;1.70;;;;;;;20.86;55.32;97170.84;10368264;28;20037;-22
2022/07/16 18:35:00;;;;;;;1.83;1.67;;;;;;;20.84;54.63;97177.63;10365360;28;20088;-21
2022/07/16 18:40:00;;;;;;;1.55;1.45;;;;;;;20.68;55.13;97183.56;10367351;28;20045;-22
2022/07/16 18:45:01;;;;;;;1.53;1.43;;;;;;;20.60;55.27;97182.75;10365456;28;20025;-21
2022/07/16 18:50:02;;;;;;;1.60;1.50;;;;;;;20.58;55.51;97193.75;10367422;28;20537;-22
2022/07/16 18:55:03;;;;;;;1.40;1.30;;;;;;;20.55;55.63;97199.69;10371599;28;20110;-21
2022/07/16 19:00:05;;;;;;;1.58;1.48;;;;;;;20.56;55.79;97209.00;10367136;28;20073;-22
2022/07/16 19:05:06;;;;;;;1.50;1.40;;;;;;;20.55;55.69;97214.94;10367527;28;20033;-22
2022/07/16 19:10:07;;;;;;;1.55;1.42;;;;;;;20.69;55.76;97220.03;10370574;28;20030;-22
2022/07/16 19:15:10;;;;;;;1.90;1.80;;;;;;;20.89;55.38;97226.81;10367365;28;20555;-22
2022/07/16 19:20:11;;;;;;;1.52;1.42;;;;;;;20.85;55.14;97234.44;10369008;28;20472;-22
2022/07/16 19:25:11;;;;;;;1.40;1.30;;;;;;;20.68;55.22;97233.59;10370931;28;20041;-22
2022/07/16 19:30:13;;;;;;;1.40;1.30;;;;;;;20.63;55.48;97238.69;10365862;28;20400;-21
2022/07/16 19:35:14;;;;;;;1.23;1.13;;;;;;;20.68;55.26;97242.09;10365434;28;20046;-22
2022/07/16 19:40:14;;;;;;;1.45;1.30;;;;;;;20.75;54.82;97248.88;10371244;28;20536;-22
2022/07/16 19:45:15;;;;;;;1.73;1.53;;;;;;;20.74;54.81;97259.91;10378113;28;20025;-21
2022/07/16 19:50:15;;;;;;;1.20;1.10;;;;;;;20.73;54.95;97265.00;10374375;28;20779;-22
2022/07/16 20:00:38;;;;;;;2.03;1.88;;;;;;;20.92;55.55;97266.72;10373767;28;20635;-22
2022/07/16 20:05:38;;;;;;;1.27;1.17;;;;;;;20.92;54.76;97282.84;10372921;28;20040;-22
2022/07/16 20:10:40;;;;;;;1.33;1.23;;;;;;;20.79;54.86;97283.66;10373969;28;20337;-22
2022/07/16 20:15:40;;;;;;;1.33;1.23;;;;;;;20.73;54.85;97291.28;10377615;28;20488;-22
2022/07/16 20:20:41;;;;;;;1.20;1.10;;;;;;;20.72;55.27;97302.31;10376909;28;20034;-22
2022/07/16 20:25:42;;;;;;;1.35;1.25;;;;;;;20.72;55.02;97315.03;10369612;28;20033;-22
2022/07/16 20:30:43;;;;;;;1.40;1.30;;;;;;;20.70;55.19;97311.66;10374502;28;20034;-22
2022/07/16 20:35:43;;;;;;;1.40;1.30;;;;;;;20.70;55.10;97321.81;10369589;28;20038;-22
2022/07/16 20:40:44;;;;;;;1.33;1.23;;;;;;;20.86;55.27;97321.03;10371473;28;20451;-22
2022/07/16 20:45:45;;;;;;;1.50;1.40;;;;;;;20.99;55.01;97322.69;10375253;28;20300;-23
2022/07/16 20:50:45;;;;;;;1.58;1.48;;;;;;;20.92;54.67;97326.13;10374592;28;20332;-22
2022/07/16 20:55:45;;;;;;;1.30;1.20;;;;;;;20.81;54.78;97324.38;10375085;28;20544;-22
2022/07/16 21:00:46;;;;;;;1.07;1.07;;;;;;;20.74;55.07;97333.72;10371600;28;20030;-22
2022/07/16 21:05:46;;;;;;;1.40;1.30;;;;;;;20.65;55.50;97331.13;10375082;28;20037;-22
2022/07/16 21:10:47;;;;;;;1.30;1.20;;;;;;;20.71;55.36;97337.97;10372041;28;20358;-22
2022/07/16 21:15:47;;;;;;;1.20;1.10;;;;;;;20.68;55.27;97338.78;10371958;28;20055;-22
2022/07/16 21:20:48;;;;;;;1.58;1.40;;;;;;;20.65;55.39;97338.78;10371471;28;20396;-23
2022/07/16 21:25:48;;;;;;;1.63;1.48;;;;;;;20.86;55.37;97336.28;10373559;28;20555;-22
2022/07/16 21:30:48;;;;;;;1.47;1.37;;;;;;;21.02;55.10;97353.28;10369436;28;20145;-22
2022/07/16 21:35:49;;;;;;;1.33;1.23;;;;;;;20.93;54.83;97353.28;10368090;28;20049;-23
2022/07/16 21:40:49;;;;;;;1.40;1.30;;;;;;;20.82;55.02;97356.63;10375640;28;20449;-23
2022/07/16 21:45:50;;;;;;;1.67;1.57;;;;;;;20.77;55.28;97363.38;10370559;28;20033;-22
2022/07/16 21:50:50;;;;;;;1.77;1.67;;;;;;;20.74;55.56;97369.34;10373338;28;20111;-22
2022/07/16 21:55:50;;;;;;;1.27;1.20;;;;;;;20.73;55.30;97375.25;10373229;28;20034;-22
2022/07/16 22:00:53;;;;;;;1.53;1.43;;;;;;;20.71;55.33;97374.41;10369633;28;20045;-22
2022/07/16 22:05:53;;;;;;;1.20;1.10;;;;;;;20.69;55.51;97381.19;10363569;28;20053;-22
2022/07/16 22:10:54;;;;;;;1.43;1.33;;;;;;;20.90;55.38;97378.69;10370208;28;20584;-22
2022/07/16 22:15:55;;;;;;;1.50;1.40;;;;;;;21.04;55.06;97378.75;10370155;28;20038;-23
2022/07/16 22:20:55;;;;;;;1.30;1.20;;;;;;;20.86;55.21;97374.47;10369997;28;20037;-22
2022/07/16 22:25:56;;;;;;;1.67;1.58;;;;;;;20.83;55.33;97389.72;10370821;28;20030;-22
2022/07/16 22:30:56;;;;;;;1.75;1.65;;;;;;;20.78;55.27;97391.41;10367467;28;20076;-22
2022/07/16 22:35:56;;;;;;;1.47;1.30;;;;;;;20.76;55.27;97379.50;10365740;28;20393;-22
2022/07/16 22:40:57;;;;;;;1.50;1.40;;;;;;;20.73;55.40;97376.97;10369519;28;20592;-22
2022/07/16 22:45:57;;;;;;;1.40;1.30;;;;;;;20.73;55.39;97366.78;10367954;28;20040;-22
2022/07/16 22:50:58;;;;;;;1.93;1.63;;;;;;;20.71;55.51;97374.41;10370673;28;20067;-22
2022/07/16 22:55:58;;;;;;;1.77;1.67;;;;;;;20.95;55.26;97374.47;10370447;28;20088;-23
2022/07/16 23:00:58;;;;;;;1.40;1.30;;;;;;;21.05;55.19;97368.53;10367568;28;20783;-22
2022/07/16 23:05:59;;;;;;;1.20;1.10;;;;;;;20.95;55.12;97374.47;10365825;28;20040;-23
2022/07/16 23:10:59;;;;;;;1.30;1.20;;;;;;;20.85;55.05;97377.84;10368155;28;20901;-23
2022/07/16 23:15:59;;;;;;;1.53;1.43;;;;;;;20.80;55.27;97374.41;10369038;28;20297;-23
2022/07/16 23:21:01;;;;;;;1.50;1.40;;;;;;;20.77;55.29;97374.44;10374713;28;20049;-22
2022/07/16 23:26:01;;;;;;;1.52;1.42;;;;;;;20.76;55.32;97371.88;10374364;28;20042;-22
2022/07/16 23:31:01;;;;;;;1.37;1.27;;;;;;;20.75;55.67;97376.13;10374576;28;20466;-22
2022/07/16 23:36:03;;;;;;;1.50;1.40;;;;;;;20.73;55.52;97377.81;10372034;28;20272;-22
2022/07/16 23:41:03;;;;;;;1.67;1.33;;;;;;;20.94;55.52;97372.78;10377745;28;20030;-22